Terminal Aerodrome Forecast
Issued by NWS

Home | Current Version | Previous Version | Text Only | Print | Product List | Glossary On
Versions: 1 2 3 4 5 6 7 8 9 10 11 12
000
FTAK31 PAJN 071100
TAFAWG
TAF
PAWG 071125Z 0712/0812 VRB04KT P6SM SKC
     FM072100 30006KT P6SM SCT120
     FM080400 VRB04KT P6SM SCT040 SCT080
      AMD LTD TO CLD VIS AND WIND 0712/0715=

USA.gov is the U.S. government's official web portal to all federal, state and local government web resources and services.